createdAt,value
2017-07-12T00:00:44.761Z,72.00
2017-07-12T00:03:13.804Z,72.30
2017-07-12T00:05:42.128Z,72.30
2017-07-12T00:08:10.401Z,72.70
2017-07-12T00:10:38.673Z,72.30
2017-07-12T00:13:06.994Z,72.20
2017-07-12T00:15:36.028Z,72.50
2017-07-12T00:18:04.293Z,72.50
2017-07-12T00:20:32.601Z,73.20
2017-07-12T00:23:00.872Z,72.70
2017-07-12T00:25:29.145Z,73.60
2017-07-12T00:27:57.575Z,73.60
2017-07-12T00:30:26.605Z,74.10
2017-07-12T00:32:54.884Z,73.90
2017-07-12T00:35:23.196Z,74.00
2017-07-12T00:37:51.464Z,74.10
2017-07-12T00:40:19.737Z,72.60
2017-07-12T00:42:48.045Z,73.40
2017-07-12T00:45:16.322Z,72.90
2017-07-12T00:47:44.582Z,72.40
2017-07-12T00:50:13.652Z,73.70
2017-07-12T00:52:41.917Z,73.40
2017-07-12T00:55:10.953Z,73.60
2017-07-12T00:57:39.366Z,73.30
2017-07-12T01:00:08.406Z,72.50
2017-07-12T01:02:36.692Z,71.90
2017-07-12T01:05:04.989Z,70.70
2017-07-12T01:07:33.308Z,69.80
2017-07-12T01:10:01.572Z,71.00
2017-07-12T01:12:29.887Z,69.80
2017-07-12T01:14:58.165Z,69.60
2017-07-12T01:17:26.449Z,69.90
2017-07-12T01:19:54.753Z,68.60
2017-07-12T01:22:23.020Z,69.10
2017-07-12T01:24:51.288Z,69.00
2017-07-12T01:27:19.628Z,70.00
2017-07-12T01:29:48.671Z,69.10
2017-07-12T01:32:16.940Z,69.20
2017-07-12T01:34:45.244Z,69.90
2017-07-12T01:37:13.520Z,69.90
2017-07-12T01:39:41.792Z,69.10
2017-07-12T01:42:10.103Z,68.50
2017-07-12T01:44:39.136Z,69.70
2017-07-12T01:47:08.425Z,69.70
2017-07-12T01:49:36.767Z,70.10
2017-07-12T01:52:05.071Z,69.10
2017-07-12T01:54:33.331Z,69.20
2017-07-12T01:57:01.636Z,70.10
2017-07-12T01:59:29.904Z,69.10
2017-07-12T02:01:58.180Z,69.20
2017-07-12T02:04:26.496Z,70.10
2017-07-12T02:06:54.768Z,69.80
2017-07-12T02:09:23.797Z,69.50
2017-07-12T02:11:52.109Z,69.40
2017-07-12T02:14:21.137Z,69.80
2017-07-12T02:16:49.404Z,69.80
2017-07-12T02:19:17.710Z,69.70
2017-07-12T02:21:46.741Z,70.50
2017-07-12T02:24:15.015Z,70.40
2017-07-12T02:26:43.309Z,70.40
2017-07-12T02:29:12.347Z,70.40
2017-07-12T02:31:40.612Z,70.40
2017-07-12T02:34:08.997Z,70.80
2017-07-12T02:36:37.264Z,71.80
2017-07-12T02:39:05.537Z,71.30
2017-07-12T02:41:34.736Z,71.00
2017-07-12T02:44:03.005Z,71.60
2017-07-12T02:46:31.327Z,72.30
2017-07-12T02:48:59.592Z,72.10
2017-07-12T02:51:27.862Z,71.40
2017-07-12T02:53:56.896Z,72.80
2017-07-12T02:56:25.209Z,72.00
2017-07-12T02:58:54.241Z,71.50
2017-07-12T03:01:22.507Z,71.50
2017-07-12T03:03:50.825Z,71.50
2017-07-12T03:06:19.132Z,71.50
2017-07-12T03:08:47.388Z,71.50
2017-07-12T03:11:15.688Z,71.70
2017-07-12T03:13:44.741Z,70.70
2017-07-12T03:16:13.004Z,70.70
2017-07-12T03:18:41.329Z,71.30
2017-07-12T03:21:09.600Z,71.20
2017-07-12T03:23:37.864Z,71.60
2017-07-12T03:26:06.173Z,72.50
2017-07-12T03:28:34.437Z,71.30
2017-07-12T03:31:03.468Z,72.20
2017-07-12T03:33:31.780Z,72.10
2017-07-12T03:36:00.809Z,70.90
2017-07-12T03:38:29.078Z,70.80
2017-07-12T03:40:57.392Z,70.80
2017-07-12T03:43:26.432Z,71.60
2017-07-12T03:45:54.697Z,72.20
2017-07-12T03:48:23.157Z,72.90
2017-07-12T03:50:51.369Z,71.90
2017-07-12T03:53:19.641Z,72.30
2017-07-12T03:55:47.952Z,72.60
2017-07-12T03:58:16.220Z,73.10
2017-07-12T04:00:44.493Z,72.70
2017-07-12T04:03:13.569Z,73.30
2017-07-12T04:05:42.609Z,73.50
2017-07-12T04:08:10.881Z,73.10
2017-07-12T04:10:39.185Z,73.10
2017-07-12T04:13:08.230Z,73.30
2017-07-12T04:15:36.497Z,73.20
2017-07-12T04:18:04.872Z,73.60
2017-07-12T04:20:33.905Z,74.40
2017-07-12T04:23:02.183Z,73.70
2017-07-12T04:25:30.573Z,74.30
2017-07-12T04:27:58.844Z,72.70
2017-07-12T04:30:27.892Z,72.70
2017-07-12T04:32:56.201Z,72.70
2017-07-12T04:35:24.477Z,73.00
2017-07-12T04:37:52.744Z,71.80
2017-07-12T04:40:21.060Z,72.20
2017-07-12T04:42:49.328Z,70.90
2017-07-12T04:45:18.365Z,70.80
2017-07-12T04:47:46.857Z,70.70
2017-07-12T04:50:15.134Z,70.40
2017-07-12T04:52:43.400Z,69.60
2017-07-12T04:55:12.573Z,69.00
2017-07-12T04:57:41.613Z,67.90
2017-07-12T05:00:09.882Z,67.90
2017-07-12T05:02:38.192Z,67.80
2017-07-12T05:05:07.239Z,66.90
2017-07-12T05:07:35.500Z,66.80
2017-07-12T05:10:03.808Z,67.50
2017-07-12T05:12:32.076Z,68.20
2017-07-12T05:15:00.352Z,66.70
2017-07-12T05:17:28.694Z,67.40
2017-07-12T05:19:56.960Z,66.20
2017-07-12T05:22:25.228Z,65.60
2017-07-12T05:24:53.531Z,65.90
2017-07-12T05:27:21.795Z,67.50
2017-07-12T05:29:50.120Z,66.70
2017-07-12T05:32:19.445Z,66.70
2017-07-12T05:34:47.714Z,66.60
2017-07-12T05:37:15.980Z,67.80
2017-07-12T05:39:45.057Z,66.50
2017-07-12T05:42:14.104Z,66.50
2017-07-12T05:44:42.373Z,66.50
2017-07-12T05:47:10.685Z,66.40
2017-07-12T05:49:38.954Z,67.30
2017-07-12T05:52:07.232Z,66.00
2017-07-12T05:54:35.545Z,65.80
2017-07-12T05:57:04.589Z,65.70
2017-07-12T05:59:32.860Z,65.60
2017-07-12T06:02:01.165Z,65.40
2017-07-12T06:04:30.400Z,65.20
2017-07-12T06:06:58.667Z,65.00
2017-07-12T06:09:26.976Z,64.50
2017-07-12T06:11:55.253Z,65.50
2017-07-12T06:14:23.528Z,63.90
2017-07-12T06:16:51.834Z,64.40
2017-07-12T06:19:20.124Z,64.80
2017-07-12T06:21:48.412Z,63.00
2017-07-12T06:24:16.712Z,63.10
2017-07-12T06:26:45.758Z,64.20
2017-07-12T06:29:14.036Z,63.60
2017-07-12T06:31:42.361Z,63.00
2017-07-12T06:34:10.632Z,63.10
2017-07-12T06:36:38.904Z,63.20
2017-07-12T06:39:07.214Z,63.40
2017-07-12T06:41:36.260Z,61.80
2017-07-12T06:44:04.525Z,61.70
2017-07-12T06:46:32.913Z,61.60
2017-07-12T06:49:01.181Z,63.70
2017-07-12T06:51:30.212Z,61.00
2017-07-12T06:53:58.521Z,60.90
2017-07-12T06:56:27.544Z,61.70
2017-07-12T06:58:55.813Z,60.90
2017-07-12T07:01:24.137Z,63.30
2017-07-12T07:03:52.400Z,60.70
2017-07-12T07:06:20.701Z,63.80
2017-07-12T07:08:48.997Z,60.40
2017-07-12T07:11:18.036Z,61.60
2017-07-12T07:13:46.300Z,62.50
2017-07-12T07:16:14.636Z,61.30
2017-07-12T07:18:42.905Z,63.20
2017-07-12T07:21:12.100Z,62.50
2017-07-12T07:23:40.412Z,62.40
2017-07-12T07:26:09.441Z,62.80
2017-07-12T07:28:37.711Z,62.40
2017-07-12T07:31:06.033Z,62.80
2017-07-12T07:33:34.303Z,61.70
2017-07-12T07:36:02.568Z,59.20
2017-07-12T07:38:30.892Z,59.20
2017-07-12T07:40:59.152Z,59.90
2017-07-12T07:43:27.419Z,57.40
2017-07-12T07:45:56.485Z,59.30
2017-07-12T07:48:24.762Z,58.50
2017-07-12T07:50:53.798Z,55.60
2017-07-12T07:53:22.101Z,55.60
2017-07-12T07:55:51.137Z,55.20
2017-07-12T07:58:19.405Z,55.20
2017-07-12T08:00:47.706Z,56.80
2017-07-12T08:03:16.743Z,54.60
2017-07-12T08:05:45.038Z,54.60
2017-07-12T08:08:13.341Z,55.20
2017-07-12T08:10:42.697Z,53.60
2017-07-12T08:13:11.740Z,54.20
2017-07-12T08:15:40.181Z,54.10
2017-07-12T08:18:08.501Z,54.00
2017-07-12T08:20:37.890Z,55.70
2017-07-12T08:23:06.952Z,53.40
2017-07-12T08:25:35.228Z,53.10
2017-07-12T08:28:04.262Z,53.40
2017-07-12T08:30:32.580Z,53.30
2017-07-12T08:33:00.848Z,52.70
2017-07-12T08:35:29.117Z,53.40
2017-07-12T08:37:57.437Z,51.00
2017-07-12T08:40:26.486Z,51.30
2017-07-12T08:42:54.765Z,51.20
2017-07-12T08:45:23.086Z,51.20
2017-07-12T08:47:51.359Z,51.80
2017-07-12T08:50:19.619Z,50.80
2017-07-12T08:52:47.920Z,50.90
2017-07-12T08:55:16.194Z,51.40
2017-07-12T08:57:45.233Z,50.50
2017-07-12T09:00:13.536Z,49.80
2017-07-12T09:02:42.576Z,50.20
2017-07-12T09:05:10.886Z,50.10
2017-07-12T09:07:39.985Z,49.40
2017-07-12T09:10:08.256Z,49.40
2017-07-12T09:12:36.528Z,49.50
2017-07-12T09:15:04.941Z,51.00
2017-07-12T09:17:33.215Z,51.10
2017-07-12T09:20:02.244Z,51.00
2017-07-12T09:22:30.557Z,50.90
2017-07-12T09:34:54.360Z,52.00
2017-07-12T09:37:22.693Z,52.00
2017-07-12T09:39:50.964Z,51.60
2017-07-12T09:42:19.236Z,51.20
2017-07-12T09:44:47.555Z,53.30
2017-07-12T09:47:16.595Z,52.20
2017-07-12T09:49:44.885Z,52.20
2017-07-12T09:52:13.263Z,50.70
2017-07-12T09:54:41.525Z,51.50
2017-07-12T09:57:10.660Z,51.70
2017-07-12T09:59:38.970Z,51.60
2017-07-12T10:02:08.009Z,52.40
2017-07-12T10:04:36.277Z,52.10
2017-07-12T10:07:05.580Z,50.90
2017-07-12T10:09:33.848Z,49.70
2017-07-12T10:12:02.886Z,49.50
2017-07-12T10:14:31.194Z,48.90
2017-07-12T10:17:00.228Z,47.70
2017-07-12T10:19:28.497Z,47.60
2017-07-12T10:21:56.799Z,46.40
2017-07-12T10:24:25.836Z,46.70
2017-07-12T10:26:54.105Z,46.70
2017-07-12T10:29:22.420Z,46.20
2017-07-12T10:31:50.704Z,45.60
2017-07-12T10:34:19.201Z,46.00
2017-07-12T10:36:47.524Z,44.70
2017-07-12T10:39:15.796Z,43.30
2017-07-12T10:41:44.068Z,43.50
2017-07-12T10:44:12.377Z,44.20
2017-07-12T10:46:40.652Z,45.40
2017-07-12T10:49:08.929Z,42.70
2017-07-12T10:51:37.373Z,45.30
2017-07-12T10:54:07.700Z,44.40
2017-07-12T10:56:35.980Z,44.70
2017-07-12T10:59:04.284Z,44.00
2017-07-12T11:01:33.320Z,44.30
2017-07-12T11:04:01.596Z,44.20
2017-07-12T11:06:29.905Z,44.50
2017-07-12T11:08:58.409Z,45.30
2017-07-12T11:11:26.684Z,45.50
2017-07-12T11:13:55.012Z,45.50
2017-07-12T11:16:23.572Z,45.80
2017-07-12T11:18:51.844Z,45.90
2017-07-12T11:21:20.144Z,47.40
2017-07-12T11:23:49.444Z,47.20
2017-07-12T11:26:17.717Z,47.20
2017-07-12T11:28:46.905Z,48.20
2017-07-12T11:31:15.936Z,48.70
2017-07-12T11:33:44.205Z,48.50
2017-07-12T11:36:12.512Z,49.20
2017-07-12T11:38:41.567Z,55.50
2017-07-12T11:41:09.832Z,55.50
2017-07-12T11:43:38.145Z,58.10
2017-07-12T11:46:06.418Z,58.30
2017-07-12T11:48:34.687Z,59.70
2017-07-12T11:51:02.992Z,59.50
2017-07-12T11:53:32.029Z,61.50
2017-07-12T11:56:00.301Z,61.50
2017-07-12T11:58:28.697Z,64.30
2017-07-12T12:00:57.741Z,61.00
2017-07-12T12:03:26.001Z,60.70
2017-07-12T12:05:54.316Z,61.30
2017-07-12T12:08:22.961Z,63.80
2017-07-12T12:10:52.009Z,63.20
2017-07-12T12:13:20.317Z,63.20
2017-07-12T12:15:49.349Z,64.30
2017-07-12T12:18:17.616Z,64.20
2017-07-12T12:20:45.924Z,64.20
2017-07-12T12:23:14.196Z,64.50
2017-07-12T12:25:42.463Z,65.20
2017-07-12T12:28:11.305Z,67.90
2017-07-12T12:30:40.343Z,67.00
2017-07-12T12:33:08.613Z,66.90
2017-07-12T12:35:37.103Z,67.40
2017-07-12T12:38:05.372Z,67.20
2017-07-12T12:40:34.407Z,70.10
2017-07-12T12:43:02.709Z,70.00
2017-07-12T12:45:31.744Z,69.30
2017-07-12T12:48:00.008Z,69.70
2017-07-12T12:50:28.321Z,68.80
2017-07-12T12:52:57.353Z,67.10
2017-07-12T12:55:25.793Z,67.00
2017-07-12T12:57:54.097Z,64.80
2017-07-12T13:00:22.372Z,66.60
2017-07-12T13:02:50.641Z,66.70
2017-07-12T13:05:25.335Z,76.90
2017-07-12T13:07:53.608Z,76.50
2017-07-12T13:10:21.873Z,80.10
2017-07-12T13:12:50.937Z,79.50
2017-07-12T13:15:19.199Z,79.50
2017-07-12T13:17:47.473Z,80.60
2017-07-12T13:20:16.655Z,82.10
2017-07-12T13:22:45.690Z,82.70
2017-07-12T13:25:13.960Z,82.70
2017-07-12T13:27:42.257Z,83.70
2017-07-12T13:30:11.293Z,83.50
2017-07-12T13:32:39.560Z,83.40
2017-07-12T13:35:07.868Z,83.10
2017-07-12T13:37:36.900Z,85.40
2017-07-12T13:40:05.171Z,85.30
2017-07-12T13:42:33.467Z,84.30
2017-07-12T13:45:02.499Z,87.30
2017-07-12T13:47:30.773Z,87.20
2017-07-12T13:49:59.097Z,88.20
2017-07-12T13:52:27.421Z,86.80
2017-07-12T13:54:55.688Z,88.90
2017-07-12T13:57:24.782Z,84.80
2017-07-12T13:59:53.057Z,84.80
2017-07-12T14:02:21.341Z,82.00
2017-07-12T14:04:49.655Z,83.30
2017-07-12T14:07:17.913Z,81.10
2017-07-12T14:09:46.181Z,80.30
2017-07-12T14:12:15.248Z,76.10
2017-07-12T14:14:43.529Z,76.10
2017-07-12T14:17:12.553Z,77.80
2017-07-12T14:19:40.872Z,77.80
2017-07-12T14:22:09.140Z,81.00
2017-07-12T14:24:37.412Z,77.90
2017-07-12T14:27:05.725Z,78.00
2017-07-12T14:29:33.992Z,77.40
2017-07-12T14:32:02.264Z,77.80
2017-07-12T14:34:31.335Z,79.80
2017-07-12T14:36:59.608Z,79.00
2017-07-12T14:39:28.640Z,75.50
2017-07-12T14:41:57.956Z,75.30
2017-07-12T14:44:26.224Z,75.20
2017-07-12T14:46:54.493Z,75.30
2017-07-12T14:49:23.673Z,73.10
2017-07-12T14:51:52.717Z,75.80
2017-07-12T14:54:20.976Z,75.70
2017-07-12T14:56:49.281Z,76.70
2017-07-12T14:59:18.341Z,75.50
2017-07-12T15:01:46.600Z,75.30
2017-07-12T15:04:14.928Z,75.00
2017-07-12T15:06:43.306Z,74.20
2017-07-12T15:09:11.497Z,71.40
2017-07-12T15:11:40.582Z,69.10
2017-07-12T15:14:09.620Z,69.40
2017-07-12T15:16:37.893Z,69.50
2017-07-12T15:19:06.200Z,71.40
2017-07-12T15:21:34.472Z,69.20
2017-07-12T15:24:02.739Z,70.50
2017-07-12T15:26:31.062Z,68.60
2017-07-12T15:28:59.328Z,65.30
2017-07-12T15:31:28.367Z,67.90
2017-07-12T15:33:56.664Z,67.30
2017-07-12T15:36:25.720Z,65.90
2017-07-12T15:38:53.992Z,64.80
2017-07-12T15:41:22.471Z,66.40
2017-07-12T15:43:51.520Z,64.90
2017-07-12T15:46:19.801Z,65.00
2017-07-12T15:48:48.095Z,64.00
2017-07-12T15:51:16.364Z,63.90
2017-07-12T15:53:44.633Z,63.90
2017-07-12T15:56:12.949Z,65.90
2017-07-12T15:58:41.221Z,64.00
2017-07-12T16:01:10.254Z,64.50
2017-07-12T16:03:38.552Z,63.80
2017-07-12T16:06:06.825Z,65.70
2017-07-12T16:08:35.306Z,63.70
2017-07-12T16:11:04.374Z,63.70
2017-07-12T16:13:33.408Z,63.80
2017-07-12T16:16:01.684Z,63.70
2017-07-12T16:18:29.996Z,65.50
2017-07-12T16:20:58.352Z,64.00
2017-07-12T16:23:26.640Z,64.70
2017-07-12T16:25:54.957Z,65.30
2017-07-12T16:28:23.992Z,65.40
2017-07-12T16:30:52.253Z,65.30
2017-07-12T16:33:20.560Z,65.00
2017-07-12T16:35:48.832Z,65.40
2017-07-12T16:38:17.869Z,67.20
2017-07-12T16:40:46.183Z,67.20
2017-07-12T16:43:14.456Z,68.00
2017-07-12T16:45:42.727Z,68.30
2017-07-12T16:48:11.993Z,68.60
2017-07-12T16:50:40.288Z,69.20
2017-07-12T16:53:08.572Z,68.80
2017-07-12T16:55:36.877Z,69.20
2017-07-12T16:58:05.144Z,69.10
2017-07-12T17:00:33.482Z,69.50
2017-07-12T17:03:01.789Z,70.70
2017-07-12T17:05:30.061Z,69.70
2017-07-12T17:07:58.332Z,70.30
2017-07-12T17:10:26.925Z,70.60
2017-07-12T17:12:55.193Z,71.30
2017-07-12T17:15:24.234Z,70.80
2017-07-12T17:17:52.952Z,70.70
2017-07-12T17:20:21.976Z,72.00
2017-07-12T17:22:50.250Z,71.30
2017-07-12T17:25:18.568Z,70.90
2017-07-12T17:27:46.841Z,69.90
2017-07-12T17:30:15.109Z,70.10
2017-07-12T17:32:43.429Z,70.50
2017-07-12T17:35:12.465Z,70.20
2017-07-12T17:37:40.760Z,70.20
2017-07-12T17:40:09.116Z,70.40
2017-07-12T17:42:37.399Z,70.50
2017-07-12T17:45:06.444Z,70.90
2017-07-12T17:47:34.740Z,71.40
2017-07-12T17:50:03.783Z,71.80
2017-07-12T17:52:32.044Z,71.80
2017-07-12T17:55:00.540Z,72.50
2017-07-12T17:57:29.588Z,72.40
2017-07-12T17:59:57.849Z,72.40
2017-07-12T18:02:26.180Z,72.50
2017-07-12T18:04:54.491Z,71.20
2017-07-12T18:07:22.780Z,71.90
2017-07-12T18:09:51.939Z,71.70
2017-07-12T18:12:21.052Z,69.50
2017-07-12T18:14:49.317Z,69.10
2017-07-12T18:17:17.758Z,64.00
2017-07-12T18:19:46.113Z,63.40
2017-07-12T18:22:15.777Z,62.80
2017-07-12T18:24:47.863Z,62.80
2017-07-12T18:27:20.869Z,65.20
2017-07-12T18:29:54.714Z,65.10
2017-07-12T18:32:25.837Z,66.60
2017-07-12T18:34:54.166Z,67.00
2017-07-12T18:37:22.436Z,67.40
2017-07-12T18:39:50.701Z,67.80
2017-07-12T18:42:19.219Z,68.50
2017-07-12T18:44:47.519Z,69.40
2017-07-12T18:47:17.089Z,68.80
2017-07-12T18:49:45.708Z,70.30
2017-07-12T18:52:14.005Z,70.30
2017-07-12T18:54:42.409Z,70.50
2017-07-12T18:57:10.740Z,70.40
2017-07-12T18:59:39.009Z,70.40
2017-07-12T19:02:07.284Z,71.00
2017-07-12T19:04:35.592Z,70.30
2017-07-12T19:07:03.856Z,70.40
2017-07-12T19:09:32.925Z,70.80
2017-07-12T19:12:01.249Z,70.60
2017-07-12T19:14:29.972Z,70.90
2017-07-12T19:16:58.224Z,70.10
2017-07-12T19:19:27.316Z,71.00
2017-07-12T19:21:56.401Z,70.50
2017-07-12T19:24:24.708Z,70.50
2017-07-12T19:26:53.081Z,69.90
2017-07-12T19:29:24.211Z,70.80
2017-07-12T19:31:52.489Z,70.90
2017-07-12T19:34:20.786Z,71.00
2017-07-12T19:36:49.909Z,72.00
2017-07-12T19:39:18.217Z,72.00
2017-07-12T19:41:47.247Z,72.00
2017-07-12T19:44:15.544Z,72.00
2017-07-12T19:46:43.899Z,72.00
2017-07-12T19:49:12.161Z,72.20
2017-07-12T19:51:40.457Z,72.60
2017-07-12T19:54:08.772Z,73.60
2017-07-12T19:56:37.044Z,73.10
2017-07-12T19:59:05.309Z,72.90
2017-07-12T20:01:33.620Z,73.40
2017-07-12T20:04:01.903Z,73.00
2017-07-12T20:06:30.201Z,72.50
2017-07-12T20:08:58.517Z,73.60
2017-07-12T20:11:26.813Z,72.60
2017-07-12T20:13:55.076Z,72.90
2017-07-12T20:16:23.399Z,72.80
2017-07-12T20:18:51.665Z,72.90
2017-07-12T20:21:20.280Z,73.30
2017-07-12T20:23:48.784Z,73.10
2017-07-12T20:26:17.061Z,73.10
2017-07-12T20:28:45.330Z,72.80
2017-07-12T20:31:13.652Z,73.50
2017-07-12T20:33:41.921Z,74.10
2017-07-12T20:36:10.215Z,73.80
2017-07-12T20:38:38.529Z,73.40
2017-07-12T20:41:07.560Z,74.10
2017-07-12T20:43:35.845Z,73.90
2017-07-12T20:46:04.136Z,74.20
2017-07-12T20:48:33.172Z,74.80
2017-07-12T20:51:01.444Z,74.70
2017-07-12T20:53:29.749Z,74.60
2017-07-12T20:55:58.025Z,74.50
2017-07-12T20:58:26.307Z,74.00
2017-07-12T21:00:54.623Z,74.80
2017-07-12T21:03:23.653Z,74.00
2017-07-12T21:05:51.920Z,74.00
2017-07-12T21:08:20.258Z,73.70
2017-07-12T21:10:48.522Z,74.10
2017-07-12T21:13:16.796Z,73.10
2017-07-12T21:15:45.152Z,73.30
2017-07-12T21:18:13.429Z,72.70
2017-07-12T21:20:41.716Z,73.30
2017-07-12T21:23:10.812Z,73.30
2017-07-12T21:25:39.096Z,73.20
2017-07-12T21:28:07.397Z,73.50
2017-07-12T21:30:35.813Z,72.60
2017-07-12T21:33:04.015Z,72.50
2017-07-12T21:35:32.288Z,72.80
2017-07-12T21:38:01.389Z,72.10
2017-07-12T21:40:30.423Z,71.70
2017-07-12T21:42:58.729Z,71.70
2017-07-12T21:45:27.820Z,71.40
2017-07-12T21:47:56.920Z,71.40
2017-07-12T21:50:25.180Z,71.40
2017-07-12T21:52:53.507Z,71.80
2017-07-12T21:55:39.449Z,71.30
2017-07-12T21:58:25.583Z,71.20
2017-07-12T22:01:11.600Z,69.80
2017-07-12T22:03:57.929Z,70.50
2017-07-12T22:06:44.791Z,70.70
2017-07-12T22:09:30.977Z,70.20
2017-07-12T22:12:17.013Z,69.70
2017-07-12T22:15:03.201Z,69.40
2017-07-12T22:17:51.020Z,70.30
2017-07-12T22:20:37.032Z,71.50
2017-07-12T22:23:23.901Z,70.70
2017-07-12T22:26:10.004Z,69.30
2017-07-12T22:28:56.248Z,69.40
2017-07-12T22:31:42.181Z,69.40
2017-07-12T22:34:29.043Z,69.30
2017-07-12T22:37:05.016Z,69.30
2017-07-12T22:39:39.750Z,69.30
2017-07-12T22:42:13.661Z,69.20
2017-07-12T22:44:41.932Z,68.90
2017-07-12T22:47:10.213Z,67.50
2017-07-12T22:49:38.521Z,68.40
2017-07-12T22:52:06.792Z,66.70
2017-07-12T22:54:35.063Z,67.70
2017-07-12T22:57:03.371Z,67.60
2017-07-12T22:59:31.641Z,68.30
2017-07-12T23:02:00.677Z,65.60
2017-07-12T23:04:28.989Z,66.00
2017-07-12T23:06:59.809Z,66.70
2017-07-12T23:09:28.480Z,66.10
2017-07-12T23:11:57.533Z,64.10
2017-07-12T23:14:25.804Z,64.00
2017-07-12T23:16:54.105Z,64.00
2017-07-12T23:19:22.377Z,63.90
2017-07-12T23:21:50.644Z,62.20
2017-07-12T23:24:19.068Z,62.30
2017-07-12T23:26:48.090Z,61.90
2017-07-12T23:29:16.361Z,61.70
2017-07-12T23:31:44.761Z,61.80
2017-07-12T23:34:13.796Z,63.70
2017-07-12T23:36:42.061Z,63.30
2017-07-12T23:39:10.373Z,64.80
2017-07-12T23:41:38.676Z,64.00
2017-07-12T23:44:06.946Z,64.50
2017-07-12T23:46:35.236Z,64.40
2017-07-12T23:49:03.613Z,64.80
2017-07-12T23:51:31.808Z,65.00
2017-07-12T23:54:00.243Z,66.20
2017-07-12T23:56:29.280Z,66.70
2017-07-12T23:58:57.549Z,66.50
